CST,Max TemperatureF,Mean TemperatureF,Min TemperatureF,Max Dew PointF,MeanDew PointF,Min DewpointF,Max Humidity, Mean Humidity, Min Humidity, Max Sea Level PressureIn, Mean Sea Level PressureIn, Min Sea Level PressureIn, Max VisibilityMiles, Mean VisibilityMiles, Min VisibilityMiles, Max Wind SpeedMPH, Mean Wind SpeedMPH, Max Gust SpeedMPH,PrecipitationIn, CloudCover, Events, WindDirDegrees
2014-1-1,1,-3,-7,-8,-11,-15,84,69,56,30.47,30.42,30.36,10,10,10,8,5,,0.00,8,,80
2014-1-2,3,-8,-18,-4,-15,-24,84,75,59,30.52,30.44,30.27,10,10,10,8,2,,0.00,0,,287
2014-1-3,35,13,-9,36,12,-15,100,85,71,30.26,29.67,29.36,10,7,1,21,12,32,0.04,6,Rain-Snow,214
2014-1-4,37,16,-7,37,2,-13,100,78,62,30.31,30.00,29.40,10,9,3,36,21,44,0.00,3,Snow,3
2014-1-5,-4,-12,-20,-9,-19,-27,84,72,59,30.45,30.40,30.31,10,9,2,25,10,34,0.00,2,,347
2014-1-6,-7,-14,-22,-17,-23,-29,84,69,54,30.39,30.31,30.18,10,10,10,18,12,24,0.00,0,,327
2014-1-7,10,0,-11,1,-9,-18,84,71,52,30.28,30.16,30.08,10,10,10,10,3,,0.00,2,,332
2014-1-8,6,-4,-14,-2,-10,-20,85,75,56,30.46,30.38,30.29,10,10,2,12,3,17,0.00,2,Snow,193
2014-1-9,26,14,3,19,12,0,93,81,69,30.30,30.00,29.77,10,10,10,21,12,28,0.00,3,,201
2014-1-10,33,27,21,32,27,21,100,94,86,29.73,29.58,29.51,10,5,2,18,11,23,0.00,6,,231
2014-1-11,37,28,19,30,24,18,100,89,70,29.70,29.62,29.51,10,10,7,23,9,29,0.00,3,,305
2014-1-12,42,33,24,34,29,21,87,78,65,29.55,29.42,29.29,10,10,10,14,9,20,0.00,1,,261
2014-1-13,35,28,21,28,24,19,93,81,60,29.72,29.62,29.48,10,9,2,18,10,28,0.01,3,Snow,298
2014-1-14,33,22,10,34,15,7,100,87,73,30.21,29.96,29.48,10,8,1,33,19,45,0.01,8,Snow,1
2014-1-15,39,18,-2,32,11,-6,93,80,65,30.19,29.85,29.44,10,10,2,22,10,33,0.00,3,,263
2014-1-16,39,20,1,36,12,-2,100,85,65,30.03,29.73,29.43,10,7,1,36,23,46,0.00,8,,348
2014-1-17,19,6,-4,14,1,-8,86,76,62,30.12,29.99,29.60,10,10,7,25,14,31,0.00,2,,311
2014-1-18,32,24,15,32,17,10,100,86,74,30.01,29.75,29.41,10,8,2,21,12,29,0.00,5,,317
2014-1-19,42,33,24,32,27,23,93,80,61,29.76,29.61,29.48,10,10,10,24,10,36,0.00,1,,302
2014-1-20,30,8,-14,27,8,-18,93,86,77,30.54,30.11,29.77,10,7,1,26,12,32,0.00,6,Snow,1
2014-1-21,12,-2,-16,9,-8,-20,92,81,71,30.54,30.23,29.99,10,8,1,18,8,25,0.00,5,Snow,238
2014-1-22,12,0,-11,9,-4,-15,92,86,77,30.60,30.27,30.00,10,5,0,34,19,43,0.00,8,Snow,3
2014-1-23,12,-2,-16,9,-7,-20,92,85,77,30.75,30.57,30.06,10,10,2,23,13,31,0.00,2,,303
2014-1-24,37,24,12,36,24,9,100,81,68,30.02,29.71,29.54,10,9,2,29,14,37,0.00,6,Rain-Snow,312
2014-1-25,21,11,1,16,1,-6,100,71,53,30.03,29.82,29.39,10,9,1,28,18,34,0.00,4,Snow,6
2014-1-26,32,12,-7,19,7,-11,100,90,51,30.23,29.70,29.38,10,4,0,36,18,46,0.01,8,Snow,358
2014-1-27,-2,-8,-14,-6,-14,-18,92,82,77,30.47,30.40,30.24,10,9,2,23,15,31,0.00,3,Snow,339
2014-1-28,5,-4,-14,1,-9,-18,92,84,77,30.38,30.27,30.09,10,10,10,13,6,17,0.00,0,,300
2014-1-29,33,14,-5,28,10,-9,93,82,55,30.08,29.75,29.54,10,10,10,18,8,25,0.00,1,,240
2014-1-30,19,6,-7,16,3,-9,93,85,78,30.08,29.78,29.48,10,6,1,26,12,36,0.01,5,Snow,7
2014-1-31,15,2,-11,9,-2,-15,92,81,68,30.10,30.03,29.89,10,10,10,14,5,17,0.00,1,,246